createdAt,value
2018-07-07T00:01:06.024Z,93.70
2018-07-07T00:03:35.012Z,93.60
2018-07-07T00:06:03.809Z,93.50
2018-07-07T00:08:33.313Z,93.40
2018-07-07T00:11:02.318Z,93.40
2018-07-07T00:13:31.609Z,93.40
2018-07-07T00:16:00.496Z,93.20
2018-07-07T00:18:29.786Z,93.30
2018-07-07T00:20:58.763Z,93.30
2018-07-07T00:23:27.905Z,93.30
2018-07-07T00:25:56.759Z,93.40
2018-07-07T00:28:25.652Z,93.30
2018-07-07T00:30:54.472Z,93.20
2018-07-07T00:33:23.201Z,93.20
2018-07-07T00:35:52.425Z,93.20
2018-07-07T00:38:21.359Z,93.00
2018-07-07T00:40:50.191Z,92.80
2018-07-07T00:43:19.209Z,92.90
2018-07-07T00:45:48.050Z,92.90
2018-07-07T00:48:16.797Z,93.10
2018-07-07T00:50:45.655Z,93.20
2018-07-07T00:53:14.575Z,93.20
2018-07-07T00:55:43.368Z,93.40
2018-07-07T00:58:12.254Z,93.70
2018-07-07T01:00:51.603Z,93.80
2018-07-07T01:03:21.155Z,93.70
2018-07-07T01:05:50.849Z,93.90
2018-07-07T01:08:19.832Z,93.50
2018-07-07T01:10:48.837Z,94.00
2018-07-07T01:13:17.855Z,94.30
2018-07-07T01:15:46.913Z,94.00
2018-07-07T01:18:15.815Z,93.40
2018-07-07T01:20:44.741Z,93.30
2018-07-07T01:23:13.529Z,93.70
2018-07-07T01:25:42.529Z,93.00
2018-07-07T01:28:11.296Z,93.30
2018-07-07T01:30:40.087Z,93.20
2018-07-07T01:33:09.120Z,93.10
2018-07-07T01:35:37.989Z,93.20
2018-07-07T01:38:06.910Z,93.20
2018-07-07T01:40:35.706Z,93.40
2018-07-07T01:43:04.743Z,93.70
2018-07-07T01:45:33.514Z,93.70
2018-07-07T01:48:02.792Z,93.90
2018-07-07T01:50:31.710Z,93.90
2018-07-07T01:53:00.690Z,94.00
2018-07-07T01:55:29.494Z,94.10
2018-07-07T01:57:58.364Z,94.40
2018-07-07T02:00:27.448Z,94.40
2018-07-07T02:02:56.323Z,94.80
2018-07-07T02:05:25.111Z,94.80
2018-07-07T02:07:53.932Z,95.20
2018-07-07T02:10:22.765Z,95.70
2018-07-07T02:12:51.674Z,95.80
2018-07-07T02:15:20.970Z,96.60
2018-07-07T02:17:50.100Z,96.50
2018-07-07T02:20:19.186Z,96.40
2018-07-07T02:22:48.036Z,96.10
2018-07-07T02:25:16.852Z,95.70
2018-07-07T02:27:46.050Z,95.10
2018-07-07T02:30:14.949Z,94.90
2018-07-07T02:32:43.730Z,95.10
2018-07-07T02:35:12.621Z,95.20
2018-07-07T02:37:41.468Z,95.20
2018-07-07T02:42:38.683Z,95.40
2018-07-07T02:45:07.576Z,95.30
2018-07-07T02:47:36.452Z,95.00
2018-07-07T02:50:05.546Z,95.00
2018-07-07T02:52:34.407Z,94.90
2018-07-07T02:55:03.349Z,94.90
2018-07-07T02:57:32.333Z,95.20
2018-07-07T03:00:01.421Z,95.20
2018-07-07T03:02:32.335Z,95.40
2018-07-07T03:05:01.180Z,95.50
2018-07-07T03:07:30.146Z,95.60
2018-07-07T03:09:58.931Z,95.40
2018-07-07T03:12:27.705Z,95.70
2018-07-07T03:14:56.615Z,96.30
2018-07-07T03:17:25.391Z,96.30
2018-07-07T03:19:54.224Z,96.40
2018-07-07T03:22:23.221Z,96.60
2018-07-07T03:24:52.064Z,96.40
2018-07-07T03:27:21.526Z,96.40
2018-07-07T03:29:50.304Z,96.60
2018-07-07T03:32:19.197Z,97.50
2018-07-07T03:34:48.067Z,97.20
2018-07-07T03:37:16.853Z,97.70
2018-07-07T03:39:45.757Z,97.30
2018-07-07T03:42:14.614Z,97.30
2018-07-07T03:44:43.462Z,97.20
2018-07-07T03:47:12.325Z,97.00
2018-07-07T03:49:41.029Z,96.80
2018-07-07T03:52:09.855Z,96.70
2018-07-07T03:54:38.832Z,96.20
2018-07-07T03:57:07.607Z,96.20
2018-07-07T03:59:36.544Z,95.70
2018-07-07T04:02:07.999Z,95.90
2018-07-07T04:04:38.879Z,96.20
2018-07-07T04:07:08.557Z,95.60
2018-07-07T04:09:37.371Z,95.00
2018-07-07T04:12:06.254Z,94.80
2018-07-07T04:14:35.216Z,94.70
2018-07-07T04:17:04.089Z,94.30
2018-07-07T04:19:32.833Z,94.40
2018-07-07T04:22:02.932Z,94.00
2018-07-07T04:24:31.905Z,93.80
2018-07-07T04:27:00.715Z,93.60
2018-07-07T04:29:29.726Z,93.30
2018-07-07T04:31:58.543Z,92.90
2018-07-07T04:34:27.336Z,92.50
2018-07-07T04:36:56.427Z,91.80
2018-07-07T04:39:25.291Z,91.80
2018-07-07T04:41:54.273Z,91.90
2018-07-07T04:44:23.165Z,91.80
2018-07-07T04:46:52.342Z,90.80
2018-07-07T04:49:21.151Z,90.20
2018-07-07T04:51:50.185Z,88.30
2018-07-07T04:54:19.325Z,86.30
2018-07-07T04:56:48.177Z,84.40
2018-07-07T04:59:17.011Z,79.80
2018-07-07T05:01:45.807Z,76.50
2018-07-07T05:04:14.743Z,70.80
2018-07-07T05:06:43.774Z,70.20
2018-07-07T05:09:12.689Z,69.50
2018-07-07T05:11:41.517Z,65.80
2018-07-07T05:14:10.309Z,65.70
2018-07-07T05:16:45.493Z,61.70
2018-07-07T05:19:14.367Z,58.90
2018-07-07T05:21:43.313Z,54.90
2018-07-07T05:24:12.179Z,52.50
2018-07-07T05:26:41.117Z,51.80
2018-07-07T05:29:10.076Z,49.30
2018-07-07T05:31:38.900Z,47.50
2018-07-07T05:34:07.743Z,46.80
2018-07-07T05:36:36.761Z,43.60
2018-07-07T05:41:38.319Z,41.30
2018-07-07T05:44:07.220Z,41.80
2018-07-07T05:46:36.109Z,41.10
2018-07-07T05:51:33.253Z,39.90
2018-07-07T05:54:02.255Z,38.00
2018-07-07T05:56:31.388Z,38.40
2018-07-07T05:59:00.310Z,36.00
2018-07-07T06:01:29.125Z,34.60
2018-07-07T06:03:57.894Z,33.60
2018-07-07T06:06:26.783Z,33.70
2018-07-07T06:08:55.644Z,33.30
2018-07-07T06:11:24.504Z,34.30
2018-07-07T06:13:53.405Z,33.60
2018-07-07T06:16:22.373Z,34.10
2018-07-07T06:18:51.106Z,32.80
2018-07-07T06:21:20.036Z,31.60
2018-07-07T06:23:48.928Z,30.90
2018-07-07T06:26:17.737Z,31.30
2018-07-07T06:28:46.689Z,34.00
2018-07-07T06:31:15.513Z,36.40
2018-07-07T06:33:44.553Z,35.00
2018-07-07T06:36:13.912Z,33.60
2018-07-07T06:38:43.046Z,35.70
2018-07-07T06:41:11.994Z,31.80
2018-07-07T06:43:40.919Z,32.00
2018-07-07T06:46:09.829Z,31.60
2018-07-07T06:48:38.949Z,33.80
2018-07-07T06:51:07.804Z,31.00
2018-07-07T06:53:43.480Z,32.10
2018-07-07T06:56:12.326Z,33.70
2018-07-07T06:58:41.331Z,31.70
2018-07-07T07:01:10.224Z,33.20
2018-07-07T07:03:39.140Z,35.30
2018-07-07T07:06:08.087Z,33.80
2018-07-07T07:08:36.861Z,37.10
2018-07-07T07:11:05.822Z,38.30
2018-07-07T07:13:34.610Z,41.10
2018-07-07T07:16:03.418Z,40.90
2018-07-07T07:18:32.521Z,43.50
2018-07-07T07:21:01.358Z,44.50
2018-07-07T07:23:30.332Z,44.30
2018-07-07T07:25:59.214Z,46.50
2018-07-07T07:28:27.976Z,49.10
2018-07-07T07:30:56.837Z,48.10
2018-07-07T07:33:25.690Z,49.70
2018-07-07T07:36:06.884Z,48.70
2018-07-07T07:38:41.906Z,51.90
2018-07-07T07:43:49.012Z,51.00
2018-07-07T07:46:51.763Z,50.70
2018-07-07T07:49:21.672Z,51.60
2018-07-07T07:51:50.440Z,52.60
2018-07-07T07:54:19.309Z,51.30
2018-07-07T07:56:48.128Z,52.30
2018-07-07T07:59:17.173Z,53.50
2018-07-07T08:01:46.064Z,51.10
2018-07-07T08:04:14.902Z,52.30
2018-07-07T08:06:43.812Z,52.50
2018-07-07T08:09:35.034Z,52.90
2018-07-07T08:12:04.031Z,53.90
2018-07-07T08:14:33.037Z,53.30
2018-07-07T08:17:01.877Z,53.30
2018-07-07T08:19:30.805Z,54.60
2018-07-07T08:22:03.563Z,53.10
2018-07-07T08:24:32.327Z,53.60
2018-07-07T08:27:01.164Z,54.00
2018-07-07T08:29:29.887Z,56.40
2018-07-07T08:31:58.858Z,54.40
2018-07-07T08:34:52.334Z,55.90
2018-07-07T08:37:21.360Z,53.50
2018-07-07T08:39:50.127Z,53.50
2018-07-07T08:42:18.972Z,53.30
2018-07-07T08:44:47.784Z,52.50
2018-07-07T08:47:16.606Z,53.20
2018-07-07T08:49:45.390Z,52.70
2018-07-07T08:52:14.316Z,52.60
2018-07-07T08:54:43.426Z,51.90
2018-07-07T08:57:12.348Z,51.40
2018-07-07T08:59:41.120Z,52.80
2018-07-07T09:02:09.990Z,52.20
2018-07-07T09:04:38.766Z,52.70
2018-07-07T09:07:07.692Z,51.90
2018-07-07T09:09:36.812Z,50.50
2018-07-07T09:12:06.038Z,51.50
2018-07-07T09:14:35.085Z,54.10
2018-07-07T09:17:04.024Z,53.40
2018-07-07T09:19:32.901Z,52.50
2018-07-07T09:22:01.918Z,52.70
2018-07-07T09:27:24.581Z,51.20
2018-07-07T09:29:53.636Z,52.20
2018-07-07T09:32:22.870Z,51.90
2018-07-07T09:34:51.918Z,53.50
2018-07-07T09:37:20.841Z,52.80
2018-07-07T09:39:49.663Z,51.60
2018-07-07T09:42:18.632Z,51.20
2018-07-07T09:44:47.546Z,50.60
2018-07-07T09:47:16.779Z,52.50
2018-07-07T09:49:45.619Z,50.90
2018-07-07T09:52:14.432Z,52.00
2018-07-07T09:54:43.476Z,51.70
2018-07-07T09:57:26.561Z,52.00
2018-07-07T09:59:55.433Z,50.90
2018-07-07T10:02:24.647Z,50.70
2018-07-07T10:04:53.565Z,51.00
2018-07-07T10:07:23.581Z,50.00
2018-07-07T10:09:52.351Z,51.10
2018-07-07T10:12:21.231Z,49.50
2018-07-07T10:14:50.036Z,52.70
2018-07-07T10:17:19.049Z,49.90
2018-07-07T10:19:47.865Z,48.90
2018-07-07T10:22:17.828Z,50.60
2018-07-07T10:24:46.787Z,50.40
2018-07-07T10:27:15.627Z,50.30
2018-07-07T10:32:12.819Z,49.70
2018-07-07T10:34:41.779Z,49.90
2018-07-07T10:37:10.838Z,50.20
2018-07-07T10:39:45.721Z,47.70
2018-07-07T10:44:48.946Z,46.30
2018-07-07T10:47:17.945Z,49.00
2018-07-07T10:49:49.960Z,46.00
2018-07-07T10:52:22.146Z,46.60
2018-07-07T10:54:51.355Z,47.30
2018-07-07T10:57:24.578Z,46.30
2018-07-07T10:59:53.624Z,47.80
2018-07-07T11:02:22.786Z,46.20
2018-07-07T11:04:51.678Z,47.60
2018-07-07T11:07:20.564Z,47.50
2018-07-07T11:09:59.294Z,47.30
2018-07-07T11:12:28.101Z,46.60
2018-07-07T11:14:57.020Z,45.70
2018-07-07T11:17:25.916Z,45.80
2018-07-07T11:20:04.406Z,46.30
2018-07-07T11:22:33.361Z,44.90
2018-07-07T11:25:02.387Z,42.60
2018-07-07T11:27:31.773Z,42.20
2018-07-07T11:30:00.747Z,43.30
2018-07-07T11:32:29.747Z,42.30
2018-07-07T11:34:59.051Z,44.20
2018-07-07T11:37:28.071Z,43.00
2018-07-07T11:39:56.915Z,41.50
2018-07-07T11:42:27.887Z,38.90
2018-07-07T11:44:56.803Z,36.30
2018-07-07T11:47:25.849Z,35.10
2018-07-07T11:53:04.230Z,31.80
2018-07-07T11:55:33.159Z,33.70
2018-07-07T11:58:02.169Z,32.90
2018-07-07T12:00:31.151Z,32.70
2018-07-07T12:03:00.559Z,30.90
2018-07-07T12:05:29.657Z,29.00
2018-07-07T12:08:13.315Z,28.70
2018-07-07T12:12:55.989Z,30.20
2018-07-07T12:15:25.084Z,28.90
2018-07-07T12:20:22.526Z,28.00
2018-07-07T12:22:51.455Z,28.30
2018-07-07T12:25:20.294Z,28.90
2018-07-07T12:27:49.270Z,30.90
2018-07-07T12:30:18.351Z,27.70
2018-07-07T12:32:47.112Z,27.90
2018-07-07T12:35:16.169Z,27.20
2018-07-07T12:37:45.621Z,28.60
2018-07-07T12:40:14.657Z,30.20
2018-07-07T12:42:43.641Z,29.50
2018-07-07T12:45:12.545Z,29.60
2018-07-07T12:47:41.591Z,30.40
2018-07-07T12:55:07.461Z,29.40
2018-07-07T12:57:36.873Z,29.90
2018-07-07T13:00:06.145Z,31.70
2018-07-07T13:02:35.277Z,31.80
2018-07-07T13:05:04.245Z,33.60
2018-07-07T13:07:33.581Z,34.90
2018-07-07T13:10:02.459Z,33.20
2018-07-07T13:12:31.549Z,33.10
2018-07-07T13:15:00.632Z,32.90
2018-07-07T13:17:29.427Z,30.90
2018-07-07T13:19:58.227Z,31.40
2018-07-07T13:22:27.195Z,33.70
2018-07-07T13:24:56.221Z,32.60
2018-07-07T13:27:25.152Z,33.20
2018-07-07T13:29:53.934Z,31.30
2018-07-07T13:32:22.971Z,30.80
2018-07-07T13:34:51.683Z,29.30
2018-07-07T13:37:20.668Z,30.00
2018-07-07T13:39:49.526Z,32.00
2018-07-07T13:42:18.428Z,30.30
2018-07-07T13:44:47.285Z,31.10
2018-07-07T13:47:16.066Z,32.00
2018-07-07T13:49:45.117Z,31.40
2018-07-07T13:52:14.221Z,32.50
2018-07-07T13:54:43.296Z,29.40
2018-07-07T13:57:12.191Z,30.60
2018-07-07T13:59:41.130Z,32.10
2018-07-07T14:02:10.065Z,33.80
2018-07-07T14:04:39.419Z,30.80
2018-07-07T14:07:08.573Z,29.90
2018-07-07T14:09:37.473Z,31.20
2018-07-07T14:12:06.335Z,32.10
2018-07-07T14:14:35.317Z,30.00
2018-07-07T14:19:33.629Z,33.20
2018-07-07T14:22:02.473Z,32.50
2018-07-07T14:24:32.041Z,33.10
2018-07-07T14:27:00.891Z,32.00
2018-07-07T14:29:29.705Z,33.30
2018-07-07T14:31:58.573Z,30.50
2018-07-07T14:34:27.441Z,31.90
2018-07-07T14:36:56.429Z,31.40
2018-07-07T14:39:28.971Z,30.50
2018-07-07T14:42:08.231Z,31.70
2018-07-07T14:44:36.993Z,29.00
2018-07-07T14:47:05.943Z,29.20
2018-07-07T14:49:34.784Z,30.00
2018-07-07T14:52:03.739Z,29.00
2018-07-07T14:54:32.523Z,30.20
2018-07-07T14:57:01.565Z,31.00
2018-07-07T14:59:30.405Z,31.10
2018-07-07T15:01:59.231Z,30.00
2018-07-07T15:04:28.105Z,32.20
2018-07-07T15:06:56.972Z,32.30
2018-07-07T15:09:25.798Z,32.00
2018-07-07T15:11:58.809Z,33.70
2018-07-07T15:14:27.689Z,34.00
2018-07-07T15:16:56.777Z,35.80
2018-07-07T15:19:25.505Z,36.60
2018-07-07T15:21:54.417Z,36.90
2018-07-07T15:24:23.293Z,35.50
2018-07-07T15:26:52.201Z,35.30
2018-07-07T15:29:21.303Z,35.10
2018-07-07T15:31:50.078Z,35.00
2018-07-07T15:34:18.916Z,34.30
2018-07-07T15:36:48.187Z,33.90
2018-07-07T15:39:17.063Z,34.00
2018-07-07T15:44:14.983Z,33.90
2018-07-07T15:46:43.849Z,33.90
2018-07-07T15:49:12.760Z,33.80
2018-07-07T15:51:41.994Z,35.50
2018-07-07T15:54:10.829Z,34.40
2018-07-07T15:56:39.655Z,33.90
2018-07-07T15:59:08.597Z,34.60
2018-07-07T16:01:37.425Z,34.30
2018-07-07T16:04:06.781Z,33.50
2018-07-07T16:09:04.851Z,34.10
2018-07-07T16:11:33.621Z,34.00
2018-07-07T16:14:02.936Z,32.50
2018-07-07T16:16:34.688Z,33.80
2018-07-07T16:19:03.669Z,33.50
2018-07-07T16:21:33.547Z,33.10
2018-07-07T16:24:02.421Z,34.30
2018-07-07T16:26:31.491Z,34.00
2018-07-07T16:29:00.333Z,33.20
2018-07-07T16:31:29.243Z,33.50
2018-07-07T16:33:58.047Z,33.90
2018-07-07T16:36:26.879Z,33.90
2018-07-07T16:38:55.662Z,34.60
2018-07-07T16:41:24.549Z,35.00
2018-07-07T16:43:53.636Z,35.40
2018-07-07T16:46:23.008Z,36.50
2018-07-07T16:48:52.028Z,36.00
2018-07-07T16:51:21.681Z,36.40
2018-07-07T16:53:50.684Z,36.00
2018-07-07T16:56:20.507Z,36.50
2018-07-07T16:58:49.855Z,36.60
2018-07-07T17:01:18.704Z,37.30
2018-07-07T17:03:47.776Z,37.50
2018-07-07T17:06:17.559Z,38.60
2018-07-07T17:08:46.476Z,37.60
2018-07-07T17:11:15.458Z,38.00
2018-07-07T17:13:44.446Z,38.30
2018-07-07T17:16:13.460Z,39.40
2018-07-07T17:18:42.295Z,39.60
2018-07-07T17:21:11.228Z,40.00
2018-07-07T17:23:40.129Z,40.50
2018-07-07T17:26:09.487Z,40.10
2018-07-07T17:28:38.830Z,40.70
2018-07-07T17:31:07.793Z,40.90
2018-07-07T17:33:36.706Z,40.50
2018-07-07T17:36:05.962Z,41.20
2018-07-07T17:38:35.203Z,41.80
2018-07-07T17:41:04.422Z,40.10
2018-07-07T17:43:33.323Z,41.20
2018-07-07T17:46:02.930Z,40.90
2018-07-07T17:48:31.851Z,41.30
2018-07-07T17:51:00.814Z,41.20
2018-07-07T17:53:29.787Z,42.10
2018-07-07T17:55:59.147Z,42.10
2018-07-07T17:58:28.106Z,42.30
2018-07-07T18:00:56.958Z,41.90
2018-07-07T18:03:25.940Z,42.20
2018-07-07T18:05:54.904Z,43.00
2018-07-07T18:08:23.803Z,41.70
2018-07-07T18:10:52.652Z,42.30
2018-07-07T18:13:21.669Z,42.30
2018-07-07T18:15:50.576Z,41.50
2018-07-07T18:18:19.370Z,41.50
2018-07-07T18:20:48.550Z,41.60
2018-07-07T18:23:17.491Z,42.20
2018-07-07T18:25:46.318Z,41.60
2018-07-07T18:28:15.430Z,42.70
2018-07-07T18:30:44.286Z,43.10
2018-07-07T18:33:13.092Z,43.00
2018-07-07T18:35:41.978Z,43.50
2018-07-07T18:38:10.775Z,43.90
2018-07-07T18:40:39.751Z,43.80
2018-07-07T18:43:08.615Z,44.00
2018-07-07T18:45:37.346Z,44.80
2018-07-07T18:48:06.366Z,45.40
2018-07-07T18:50:35.204Z,44.90
2018-07-07T18:53:04.328Z,45.50
2018-07-07T18:55:33.320Z,46.00
2018-07-07T18:58:02.143Z,46.00
2018-07-07T19:02:59.416Z,46.70
2018-07-07T19:05:28.237Z,46.80
2018-07-07T19:07:57.086Z,47.00
2018-07-07T19:10:26.042Z,47.80
2018-07-07T19:12:54.853Z,47.70
2018-07-07T19:15:23.693Z,48.70
2018-07-07T19:17:53.018Z,48.50
2018-07-07T19:20:27.031Z,48.60
2018-07-07T19:23:01.095Z,48.70
2018-07-07T19:25:35.117Z,48.90
2018-07-07T19:28:03.915Z,48.90
2018-07-07T19:30:32.719Z,49.70
2018-07-07T19:33:06.877Z,49.40
2018-07-07T19:35:41.035Z,49.60
2018-07-07T19:38:09.892Z,49.70
2018-07-07T19:40:38.722Z,49.70
2018-07-07T19:43:07.533Z,49.60
2018-07-07T19:45:37.097Z,49.80
2018-07-07T19:48:06.345Z,49.60
2018-07-07T19:50:35.195Z,49.50
2018-07-07T19:53:04.040Z,50.40
2018-07-07T19:55:33.006Z,50.50
2018-07-07T19:58:02.016Z,51.20
2018-07-07T20:00:31.067Z,50.70
2018-07-07T20:02:59.998Z,51.30
2018-07-07T20:05:28.917Z,51.60
2018-07-07T20:07:57.849Z,51.30
2018-07-07T20:10:26.714Z,51.80
2018-07-07T20:12:55.713Z,52.60
2018-07-07T20:15:35.730Z,52.50
2018-07-07T20:18:05.771Z,53.00
2018-07-07T20:20:40.048Z,53.40
2018-07-07T20:23:11.283Z,53.80
2018-07-07T20:25:40.643Z,54.20
2018-07-07T20:28:14.916Z,55.70
2018-07-07T20:30:44.050Z,56.80
2018-07-07T20:33:12.947Z,56.90
2018-07-07T20:35:41.779Z,59.50
2018-07-07T20:38:10.672Z,59.50
2018-07-07T20:40:39.763Z,60.10
2018-07-07T20:43:08.865Z,61.30
2018-07-07T20:45:37.683Z,60.90
2018-07-07T20:48:06.806Z,61.00
2018-07-07T20:50:35.904Z,60.80
2018-07-07T20:53:04.791Z,60.30
2018-07-07T20:55:33.632Z,60.70
2018-07-07T20:58:02.689Z,62.40
2018-07-07T21:00:31.693Z,61.50
2018-07-07T21:03:00.650Z,62.10
2018-07-07T21:05:29.646Z,63.50
2018-07-07T21:07:58.609Z,64.00
2018-07-07T21:10:27.540Z,64.00
2018-07-07T21:12:56.438Z,65.40
2018-07-07T21:15:25.546Z,68.70
2018-07-07T21:17:54.366Z,68.80
2018-07-07T21:20:23.430Z,69.20
2018-07-07T21:22:52.410Z,69.20
2018-07-07T21:25:21.288Z,69.20
2018-07-07T21:27:50.329Z,69.50
2018-07-07T21:30:19.211Z,69.20
2018-07-07T21:32:48.041Z,68.70
2018-07-07T21:35:17.058Z,68.50
2018-07-07T21:37:45.920Z,67.80
2018-07-07T21:40:14.886Z,67.20
2018-07-07T21:42:43.784Z,68.20
2018-07-07T21:45:12.826Z,69.60
2018-07-07T21:47:41.712Z,68.80
2018-07-07T21:50:10.634Z,71.00
2018-07-07T21:52:39.750Z,71.90
2018-07-07T21:55:08.660Z,72.20
2018-07-07T21:57:42.895Z,71.90
2018-07-07T22:00:15.937Z,72.10
2018-07-07T22:02:50.360Z,71.40
2018-07-07T22:05:24.604Z,72.50
2018-07-07T22:07:53.624Z,73.00
2018-07-07T22:10:22.502Z,73.00
2018-07-07T22:12:51.460Z,73.80
2018-07-07T22:15:20.276Z,74.70
2018-07-07T22:17:49.182Z,75.20
2018-07-07T22:20:37.043Z,76.00
2018-07-07T22:23:06.448Z,76.30
2018-07-07T22:25:35.225Z,77.10
2018-07-07T22:28:04.148Z,77.50
2018-07-07T22:30:33.199Z,78.20
2018-07-07T22:33:07.301Z,78.70
2018-07-07T22:35:41.316Z,78.20
2018-07-07T22:38:15.524Z,79.90
2018-07-07T22:40:44.338Z,78.90
2018-07-07T22:43:13.272Z,79.40
2018-07-07T22:45:42.669Z,80.70
2018-07-07T22:48:11.599Z,80.30
2018-07-07T22:50:40.544Z,80.50
2018-07-07T22:53:09.452Z,81.00
2018-07-07T22:55:38.235Z,81.30
2018-07-07T22:58:08.096Z,81.60
2018-07-07T23:00:37.362Z,80.90
2018-07-07T23:03:06.226Z,81.10
2018-07-07T23:05:35.173Z,81.50
2018-07-07T23:08:04.060Z,81.50
2018-07-07T23:10:33.016Z,81.90
2018-07-07T23:13:02.994Z,82.40
2018-07-07T23:15:32.251Z,82.50
2018-07-07T23:18:01.889Z,82.40
2018-07-07T23:20:31.212Z,82.70
2018-07-07T23:23:00.189Z,82.60
2018-07-07T23:25:29.235Z,83.10
2018-07-07T23:27:58.106Z,82.90
2018-07-07T23:30:27.038Z,83.00
2018-07-07T23:32:55.910Z,83.40
2018-07-07T23:35:24.794Z,83.70
2018-07-07T23:37:53.800Z,85.70
2018-07-07T23:40:22.878Z,88.30
2018-07-07T23:42:51.854Z,89.70
2018-07-07T23:45:20.723Z,89.00
2018-07-07T23:47:49.760Z,88.00
2018-07-07T23:50:18.646Z,88.40
2018-07-07T23:52:47.536Z,88.00
2018-07-07T23:55:16.962Z,88.20
2018-07-07T23:57:46.359Z,88.70
